Time;durP1;ratioP1;P1;durP2;ratioP2;P2;SDS_P1;SDS_P2;PMS_P1;PMS_P2;Temp;Humidity;BMP_temperature;BMP_pressure;BME280_temperature;BME280_humidity;BME280_pressure;Samples;Min_cycle;Max_cycle;Signal;HPM_P1;HPM_P2
2024/03/04 00:02:14;;;;;;;21.17;14.43;;;;;;;6.44;76.68;96274.91;5012590;28;20625;-85
2024/03/04 00:04:41;;;;;;;20.80;14.77;;;;;;;6.27;76.46;96275.19;5012733;28;20203;-85
2024/03/04 00:07:09;;;;;;;20.63;15.80;;;;;;;6.01;77.76;96269.91;5010674;28;20195;-84
2024/03/04 00:09:36;;;;;;;23.57;16.63;;;;;;;6.01;77.17;96248.00;5012089;28;20223;-85
2024/03/04 00:12:05;;;;;;;22.97;16.80;;;;;;;5.96;77.96;96251.41;5012495;28;20207;-84
2024/03/04 00:14:32;;;;;;;24.23;17.10;;;;;;;6.11;78.17;96269.91;5019053;28;20199;-85
2024/03/04 00:17:00;;;;;;;23.93;17.20;;;;;;;6.07;77.47;96281.28;5012455;28;20202;-85
2024/03/04 00:19:27;;;;;;;23.83;16.73;;;;;;;5.84;77.03;96238.44;4992618;28;20212;-85
2024/03/04 00:21:53;;;;;;;23.07;16.07;;;;;;;6.40;76.06;96277.28;4992942;28;20258;-85
2024/03/04 00:24:20;;;;;;;19.87;16.23;;;;;;;6.53;75.34;96268.81;5001492;28;20204;-85
2024/03/04 00:26:47;;;;;;;25.70;17.03;;;;;;;6.41;76.34;96265.66;5011736;28;20219;-85
2024/03/04 00:29:14;;;;;;;25.50;17.77;;;;;;;5.40;77.08;96183.50;5030181;28;20683;-85
2024/03/04 00:31:41;;;;;;;22.00;15.83;;;;;;;6.20;77.22;96275.47;5032187;28;20191;-85
2024/03/04 00:34:09;;;;;;;19.13;14.77;;;;;;;5.94;76.30;96250.91;5031823;28;20574;-85
2024/03/04 00:36:36;;;;;;;25.23;14.43;;;;;;;5.72;77.28;96242.41;5031851;28;20202;-86
2024/03/04 00:39:03;;;;;;;19.70;13.93;;;;;;;5.98;76.61;96256.44;5031736;28;20207;-85
2024/03/04 00:41:30;;;;;;;19.03;14.07;;;;;;;6.12;76.27;96273.38;5031648;28;20205;-85
2024/03/04 00:43:57;;;;;;;25.10;16.33;;;;;;;5.84;76.58;96264.84;5031563;28;20677;-86
2024/03/04 00:46:24;;;;;;;22.37;16.93;;;;;;;5.98;77.12;96272.28;5031422;28;20667;-86
2024/03/04 00:48:51;;;;;;;23.23;15.20;;;;;;;5.67;77.21;96239.75;5031543;28;20199;-85
2024/03/04 00:51:19;;;;;;;22.00;15.93;;;;;;;6.10;76.00;96270.97;5029672;28;20222;-86
2024/03/04 00:53:46;;;;;;;20.53;15.57;;;;;;;5.96;76.27;96269.91;5011589;28;20600;-86
2024/03/04 00:56:14;;;;;;;22.80;15.50;;;;;;;5.93;75.57;96275.72;5011194;28;20290;-86
2024/03/04 00:58:41;;;;;;;22.63;16.70;;;;;;;5.63;77.05;96266.69;5011375;28;20682;-86
2024/03/04 01:01:08;;;;;;;21.90;15.37;;;;;;;5.57;76.77;96264.28;5011690;28;20210;-86
2024/03/04 01:03:35;;;;;;;18.07;13.90;;;;;;;5.19;77.48;96226.75;5012477;28;20254;-86
2024/03/04 01:06:02;;;;;;;23.97;16.07;;;;;;;5.81;77.13;96268.03;5010297;28;20206;-86
2024/03/04 01:08:32;;;;;;;25.13;17.60;;;;;;;5.96;77.20;96269.91;5012391;28;20295;-86
2024/03/04 01:10:58;;;;;;;20.70;14.67;;;;;;;5.76;77.36;96238.97;5015386;28;20223;-88
2024/03/04 01:13:25;;;;;;;27.13;17.23;;;;;;;5.60;78.00;96271.69;5014182;28;20210;-86
2024/03/04 01:15:53;;;;;;;30.80;19.13;;;;;;;5.13;78.77;96194.28;5015405;28;20207;-88
2024/03/04 01:18:20;;;;;;;19.17;13.27;;;;;;;5.71;78.66;96306.84;5014148;28;20195;-87
2024/03/04 01:20:47;;;;;;;21.07;13.93;;;;;;;5.64;78.66;96267.47;5014965;28;20199;-87
2024/03/04 01:23:14;;;;;;;17.17;14.27;;;;;;;5.82;78.62;96279.38;5031324;28;20209;-89
2024/03/04 01:25:44;;;;;;;21.80;14.53;;;;;;;5.42;79.39;96214.13;5029607;28;20219;-89
2024/03/04 01:28:11;;;;;;;18.17;13.70;;;;;;;5.79;79.03;96283.34;5014861;28;20199;-89
2024/03/04 01:30:38;;;;;;;18.17;13.80;;;;;;;5.94;78.91;96261.47;5014443;28;20223;-87
2024/03/04 01:33:07;;;;;;;20.67;13.90;;;;;;;5.99;79.36;96260.66;5014756;28;20586;-86
2024/03/04 01:35:33;;;;;;;22.80;14.47;;;;;;;6.04;79.94;96274.69;5014804;28;20678;-85
2024/03/04 01:38:01;;;;;;;20.57;14.37;;;;;;;6.22;78.87;96270.69;5014968;28;20265;-85
2024/03/04 01:40:28;;;;;;;22.80;16.03;;;;;;;6.18;79.03;96258.28;5019907;28;20223;-86
2024/03/04 01:42:57;;;;;;;19.07;13.30;;;;;;;6.14;79.76;96260.66;5034449;28;20194;-86
2024/03/04 01:45:25;;;;;;;18.57;13.60;;;;;;;5.95;80.20;96228.69;5034356;28;20195;-86
2024/03/04 01:47:53;;;;;;;19.37;13.97;;;;;;;6.30;79.62;96262.22;5017526;28;20230;-86
2024/03/04 01:50:22;;;;;;;21.60;14.10;;;;;;;6.26;79.73;96263.81;5014604;28;20560;-86
2024/03/04 01:52:50;;;;;;;22.77;14.87;;;;;;;6.22;79.71;96236.34;5013350;28;20257;-86
2024/03/04 01:55:19;;;;;;;20.83;14.80;;;;;;;5.82;78.67;96224.72;4996935;28;20635;-86
2024/03/04 01:57:48;;;;;;;24.90;16.33;;;;;;;5.60;78.43;96275.13;5006195;28;20199;-86
2024/03/04 02:00:19;;;;;;;25.43;15.80;;;;;;;5.33;78.97;96256.84;5013302;28;20680;-85
2024/03/04 02:02:46;;;;;;;23.83;15.20;;;;;;;5.67;79.41;96276.72;5014461;28;20290;-86
2024/03/04 02:05:14;;;;;;;22.97;14.40;;;;;;;5.94;80.29;96276.53;5014672;28;20578;-86
2024/03/04 02:07:43;;;;;;;23.03;14.67;;;;;;;6.01;80.23;96275.19;5014614;28;20203;-87
2024/03/04 02:10:10;;;;;;;22.10;13.20;;;;;;;5.99;80.07;96277.31;5014416;28;20269;-88
2024/03/04 02:12:38;;;;;;;18.53;14.43;;;;;;;6.01;80.23;96272.56;5014188;28;20745;-88
2024/03/04 02:15:06;;;;;;;25.03;14.83;;;;;;;5.99;80.48;96279.16;5014692;28;20203;-87
2024/03/04 02:17:35;;;;;;;25.77;16.43;;;;;;;5.96;80.08;96256.69;5012593;28;20196;-86
2024/03/04 02:20:07;;;;;;;24.40;16.47;;;;;;;6.25;79.69;96274.66;5013355;28;20766;-86
2024/03/04 02:22:35;;;;;;;34.60;25.43;;;;;;;6.32;79.81;96270.69;5013543;28;20199;-86
2024/03/04 02:25:03;;;;;;;34.80;27.13;;;;;;;6.40;79.18;96260.66;5012790;28;20207;-86
2024/03/04 02:27:30;;;;;;;28.23;23.97;;;;;;;6.32;79.77;96267.25;5013502;28;20253;-87
2024/03/04 02:29:56;;;;;;;24.80;19.27;;;;;;;6.30;80.41;96272.78;5014099;28;20223;-86
2024/03/04 02:32:24;;;;;;;20.63;16.80;;;;;;;6.18;79.57;96247.72;5013092;28;20273;-86
2024/03/04 02:34:52;;;;;;;22.27;16.63;;;;;;;6.38;79.58;96264.31;5013978;28;20257;-86
2024/03/04 02:37:19;;;;;;;22.20;18.13;;;;;;;6.31;79.93;96265.66;5012408;28;20211;-86
2024/03/04 02:39:48;;;;;;;26.47;19.23;;;;;;;5.89;80.21;96235.81;5013546;28;20670;-85
2024/03/04 02:42:15;;;;;;;25.07;17.07;;;;;;;6.17;79.46;96259.34;5012266;28;20203;-86
2024/03/04 02:44:42;;;;;;;19.90;15.83;;;;;;;6.34;79.44;96283.63;5013316;28;20666;-86
2024/03/04 02:47:09;;;;;;;20.90;16.33;;;;;;;6.25;79.16;96280.75;5013531;28;20666;-86
2024/03/04 02:49:35;;;;;;;21.10;15.10;;;;;;;6.29;79.11;96283.66;5013332;28;20691;-86
2024/03/04 02:52:02;;;;;;;25.40;15.73;;;;;;;5.91;79.09;96291.00;5011737;28;20603;-86
2024/03/04 02:54:29;;;;;;;25.17;16.27;;;;;;;6.01;79.66;96277.84;5015622;28;20200;-86
2024/03/04 02:56:57;;;;;;;22.30;16.00;;;;;;;5.75;79.63;96273.56;5026159;28;20662;-87
2024/03/04 02:59:24;;;;;;;23.20;16.63;;;;;;;6.05;79.64;96278.91;5012234;28;20211;-86
2024/03/04 03:01:51;;;;;;;19.67;14.30;;;;;;;5.81;79.00;96230.28;5013193;28;20238;-86
2024/03/04 03:04:18;;;;;;;19.60;15.13;;;;;;;5.83;78.79;96284.41;5012701;28;20635;-87
2024/03/04 03:06:45;;;;;;;20.10;14.97;;;;;;;5.75;79.48;96270.94;5013312;28;20203;-86
2024/03/04 03:09:12;;;;;;;25.17;16.87;;;;;;;5.55;79.11;96213.63;5011999;28;20235;-86
2024/03/04 03:11:40;;;;;;;24.13;16.87;;;;;;;5.96;78.89;96280.47;5012929;28;20223;-86
2024/03/04 03:14:08;;;;;;;22.63;15.00;;;;;;;5.84;79.16;96287.81;5012815;28;20238;-87
2024/03/04 03:16:35;;;;;;;26.47;16.07;;;;;;;5.91;78.97;96280.44;5013068;28;20701;-86
2024/03/04 03:19:02;;;;;;;20.70;14.93;;;;;;;6.07;78.59;96289.19;5012165;28;20681;-86
2024/03/04 03:21:29;;;;;;;114.17;54.70;;;;;;;6.16;78.06;96289.44;5012579;28;20203;-87
2024/03/04 03:23:56;;;;;;;29.10;20.33;;;;;;;6.10;78.04;96286.81;5012991;28;20627;-86
2024/03/04 03:26:25;;;;;;;19.77;14.60;;;;;;;5.88;78.02;96238.69;5013120;28;20234;-86
2024/03/04 03:28:52;;;;;;;17.20;12.83;;;;;;;6.23;77.98;96287.34;5011519;28;20654;-87
2024/03/04 03:31:21;;;;;;;20.80;15.53;;;;;;;5.98;78.24;96253.81;5011958;28;20678;-86
2024/03/04 03:33:47;;;;;;;21.83;15.47;;;;;;;6.21;77.99;96297.41;5011686;28;20203;-86
2024/03/04 03:36:14;;;;;;;18.93;15.07;;;;;;;5.96;79.45;96291.03;5012496;28;20207;-85
2024/03/04 03:38:41;;;;;;;20.87;15.13;;;;;;;6.13;79.21;96283.66;5011545;28;20728;-85
2024/03/04 03:41:08;;;;;;;20.90;15.73;;;;;;;6.24;79.12;96275.72;5012234;28;20346;-86
2024/03/04 03:43:34;;;;;;;23.03;16.03;;;;;;;6.26;79.27;96276.25;5012855;28;20211;-85
2024/03/04 03:46:02;;;;;;;17.47;13.57;;;;;;;6.32;78.89;96275.19;5012784;28;20298;-86
2024/03/04 03:48:30;;;;;;;20.50;15.20;;;;;;;6.10;79.47;96270.19;5012342;28;20627;-85
2024/03/04 03:50:57;;;;;;;25.37;15.77;;;;;;;5.23;79.83;96216.47;5011178;28;20227;-86
2024/03/04 03:53:25;;;;;;;22.50;16.47;;;;;;;5.30;81.26;96289.03;5012197;28;20567;-87
2024/03/04 03:55:52;;;;;;;29.50;16.53;;;;;;;5.55;80.63;96282.25;5012793;28;20207;-86
2024/03/04 03:58:18;;;;;;;26.90;16.97;;;;;;;5.39;80.15;96244.47;5011185;28;20203;-86
2024/03/04 04:00:45;;;;;;;26.70;17.63;;;;;;;5.60;79.87;96251.38;5011122;28;20868;-86
2024/03/04 04:03:12;;;;;;;25.97;17.20;;;;;;;5.89;79.29;96293.94;5020160;28;20622;-86
2024/03/04 04:05:40;;;;;;;26.10;18.97;;;;;;;5.92;79.41;96284.69;5012111;28;20276;-86
2024/03/04 04:08:07;;;;;;;28.07;17.33;;;;;;;5.75;79.64;96299.97;5012318;28;20290;-86
2024/03/04 04:10:34;;;;;;;31.17;17.43;;;;;;;5.19;80.36;96212.75;5012277;28;20314;-87
2024/03/04 04:13:01;;;;;;;18.63;14.60;;;;;;;5.68;80.20;96291.50;5012222;28;20646;-85
2024/03/04 04:15:28;;;;;;;22.53;16.03;;;;;;;5.77;80.13;96296.03;5013049;28;20582;-86
2024/03/04 04:17:55;;;;;;;20.80;17.20;;;;;;;5.81;79.96;96293.66;5012416;28;20265;-85
2024/03/04 04:20:22;;;;;;;20.03;15.57;;;;;;;6.03;79.48;96299.50;5012127;28;20200;-86
2024/03/04 04:22:50;;;;;;;25.50;17.13;;;;;;;5.74;79.53;96293.13;5011110;28;20207;-86
2024/03/04 04:25:17;;;;;;;22.53;16.17;;;;;;;5.80;80.34;96319.25;5011965;28;20203;-86
2024/03/04 04:27:45;;;;;;;20.13;14.03;;;;;;;5.96;80.21;96311.38;5012709;28;20206;-85
2024/03/04 04:30:12;;;;;;;19.17;15.03;;;;;;;6.03;79.68;96312.69;5018091;28;20628;-85
2024/03/04 04:32:41;;;;;;;25.30;16.73;;;;;;;5.42;79.44;96217.56;5011482;28;20199;-86
2024/03/04 04:35:08;;;;;;;25.20;17.23;;;;;;;5.69;80.12;96290.44;5011798;28;20277;-86
2024/03/04 04:37:35;;;;;;;17.87;14.60;;;;;;;6.01;80.14;96314.03;5011813;28;20258;-85
2024/03/04 04:40:04;;;;;;;24.63;18.40;;;;;;;6.08;79.82;96315.38;5011651;28;20199;-86
2024/03/04 04:42:31;;;;;;;25.50;16.87;;;;;;;5.97;79.44;96289.22;5011925;28;20203;-85
2024/03/04 04:44:57;;;;;;;21.37;15.43;;;;;;;6.12;79.59;96302.44;5014557;28;20199;-85
2024/03/04 04:47:26;;;;;;;27.33;18.70;;;;;;;6.11;79.85;96304.25;5014991;28;20654;-85
2024/03/04 04:49:53;;;;;;;20.70;16.47;;;;;;;6.29;nan;96304.78;5015565;28;20261;-87
2024/03/04 04:52:21;;;;;;;20.80;15.83;;;;;;;6.13;79.17;96296.88;5015660;28;20227;-87
2024/03/04 04:54:48;;;;;;;23.57;15.40;;;;;;;6.09;79.54;96290.53;5015601;28;20199;-86
2024/03/04 04:57:18;;;;;;;20.30;16.27;;;;;;;6.15;79.70;96301.09;5014962;28;20290;-86
2024/03/04 04:59:47;;;;;;;23.03;18.37;;;;;;;5.51;79.90;96250.31;5021052;28;20207;-86
2024/03/04 05:02:14;;;;;;;27.10;17.77;;;;;;;5.94;80.34;96308.22;5014852;28;20536;-86
2024/03/04 05:04:40;;;;;;;28.30;20.23;;;;;;;5.79;80.87;96316.88;5007814;28;20191;-86
2024/03/04 05:07:07;;;;;;;23.03;17.57;;;;;;;5.75;80.78;96313.97;5014442;28;20206;-86
2024/03/04 05:09:34;;;;;;;22.17;17.00;;;;;;;5.91;80.92;96317.41;5015269;28;20207;-86
2024/03/04 05:12:01;;;;;;;21.13;16.30;;;;;;;5.93;80.55;96320.63;5015198;28;20227;-86
2024/03/04 05:14:29;;;;;;;20.40;15.27;;;;;;;5.84;80.96;96312.38;5015754;28;20203;-85
2024/03/04 05:16:56;;;;;;;22.17;16.93;;;;;;;6.08;80.54;96325.94;5013660;28;20666;-85
2024/03/04 05:19:25;;;;;;;21.53;16.50;;;;;;;6.20;80.04;96323.03;5015198;28;20231;-85
2024/03/04 05:21:52;;;;;;;26.10;16.60;;;;;;;6.15;79.92;96336.22;5014971;28;20690;-85
2024/03/04 05:24:19;;;;;;;23.23;17.73;;;;;;;5.79;79.65;96280.69;5015217;28;20207;-87
2024/03/04 05:26:45;;;;;;;33.03;21.93;;;;;;;6.21;80.03;96345.75;5014912;28;20231;-86
2024/03/04 05:29:12;;;;;;;43.80;34.33;;;;;;;6.19;79.88;96347.06;5015199;28;20261;-86
2024/03/04 05:31:53;;;;;;;39.10;30.77;;;;;;;6.21;79.99;96348.41;5000833;28;20224;-86
2024/03/04 05:34:20;;;;;;;28.30;25.17;;;;;;;6.10;79.59;96346.81;5004225;28;20287;-85
2024/03/04 05:36:48;;;;;;;25.70;18.60;;;;;;;5.95;80.41;96326.44;4994285;28;20196;-85
2024/03/04 05:39:18;;;;;;;30.20;22.07;;;;;;;6.23;80.26;96354.19;4994811;28;20207;-83
2024/03/04 05:41:45;;;;;;;61.80;43.17;;;;;;;6.15;80.33;96360.00;5009049;28;20203;-85
2024/03/04 05:44:12;;;;;;;38.03;27.60;;;;;;;5.93;80.84;96347.06;5015522;28;20199;-85
2024/03/04 05:46:38;;;;;;;36.77;30.47;;;;;;;6.21;80.18;96356.31;4999701;28;20203;-85
2024/03/04 05:49:08;;;;;;;34.97;27.37;;;;;;;6.29;80.19;96352.38;5014341;28;20195;-88
2024/03/04 05:51:39;;;;;;;37.57;27.03;;;;;;;6.18;80.41;96351.56;5015614;28;20285;-88
2024/03/04 05:54:06;;;;;;;41.13;29.30;;;;;;;6.28;80.57;96337.56;5015680;28;20227;-88
2024/03/04 05:56:32;;;;;;;30.87;24.83;;;;;;;6.32;79.80;96344.69;5014153;28;20204;-91
2024/03/04 05:58:59;;;;;;;23.23;17.10;;;;;;;6.44;79.50;96341.78;5028727;28;20256;-90
2024/03/04 06:01:26;;;;;;;20.97;17.03;;;;;;;6.55;78.67;96350.53;5009920;28;20199;-92
2024/03/04 06:03:53;;;;;;;27.27;17.03;;;;;;;6.55;78.75;96346.03;5015584;28;20207;-92
2024/03/04 06:06:21;;;;;;;22.30;16.17;;;;;;;6.28;78.97;96342.84;5014528;28;20204;-93
2024/03/04 06:08:48;;;;;;;22.63;18.13;;;;;;;6.59;78.81;96346.28;5014516;28;20203;-91
2024/03/04 06:11:15;;;;;;;22.57;16.00;;;;;;;6.38;78.93;96351.56;5015555;28;20250;-93
2024/03/04 06:13:42;;;;;;;20.90;16.00;;;;;;;6.39;79.52;96378.81;5016371;28;20266;-93
2024/03/04 06:16:09;;;;;;;25.20;16.80;;;;;;;6.16;78.95;96315.88;5015440;28;20203;-92
2024/03/04 06:18:35;;;;;;;36.47;24.33;;;;;;;6.51;79.32;96360.03;5015305;28;20203;-90
2024/03/04 06:21:03;;;;;;;48.83;27.00;;;;;;;6.70;79.14;96361.09;5014112;28;20269;-92
2024/03/04 06:23:31;;;;;;;28.93;19.07;;;;;;;6.76;78.91;96367.16;5015116;28;20290;-92
2024/03/04 06:25:57;;;;;;;31.10;22.40;;;;;;;6.54;78.83;96325.94;5015423;28;20227;-92
2024/03/04 06:28:24;;;;;;;28.80;21.30;;;;;;;6.69;78.85;96348.09;5013808;28;20203;-91
2024/03/04 06:30:51;;;;;;;30.00;18.87;;;;;;;6.07;80.54;96318.25;5015169;28;20265;-91
2024/03/04 06:33:18;;;;;;;29.80;18.77;;;;;;;6.64;80.10;96367.44;5015149;28;20729;-92
2024/03/04 06:35:45;;;;;;;26.67;16.47;;;;;;;6.61;79.53;96358.16;5013883;28;20214;-90
2024/03/04 06:38:12;;;;;;;22.93;15.37;;;;;;;6.92;78.24;96381.94;5015238;28;20199;-91
2024/03/04 06:40:40;;;;;;;25.13;15.43;;;;;;;6.97;77.72;96370.53;5014298;28;20211;-92
2024/03/04 06:43:07;;;;;;;17.93;14.93;;;;;;;6.98;77.89;96380.88;5014386;28;20609;-91
2024/03/04 06:45:36;;;;;;;22.30;17.20;;;;;;;6.65;77.64;96307.38;5014980;28;20204;-92
2024/03/04 06:48:03;;;;;;;27.50;18.30;;;;;;;7.08;77.73;96372.88;5002951;28;20212;-92
2024/03/04 06:50:29;;;;;;;24.73;17.03;;;;;;;7.08;77.91;96359.66;5001947;28;20208;-92
2024/03/04 06:52:57;;;;;;;19.80;15.70;;;;;;;7.17;77.58;96373.16;5014671;28;20230;-92
2024/03/04 06:55:23;;;;;;;17.67;13.93;;;;;;;7.27;77.75;96377.63;5014642;28;20234;-92
2024/03/04 06:57:52;;;;;;;18.77;13.20;;;;;;;7.24;77.42;96378.16;5014890;28;20207;-89
2024/03/04 07:00:21;;;;;;;29.93;23.67;;;;;;;7.17;77.67;96373.16;5014397;28;20265;-88
2024/03/04 07:02:47;;;;;;;31.07;22.47;;;;;;;7.33;77.49;96382.63;5012567;28;20207;-92
2024/03/04 07:05:15;;;;;;;21.27;15.30;;;;;;;7.31;77.49;96382.09;4986643;28;20204;-89
2024/03/04 07:07:41;;;;;;;19.07;15.77;;;;;;;7.28;77.10;96379.19;4976264;28;20263;-91
2024/03/04 07:10:09;;;;;;;29.80;17.57;;;;;;;7.31;77.06;96382.09;4994811;28;20215;-88
2024/03/04 07:12:37;;;;;;;54.53;31.07;;;;;;;7.36;77.70;96381.31;4994306;28;20224;-88
2024/03/04 07:15:07;;;;;;;24.77;17.10;;;;;;;7.33;77.47;96377.34;4993797;28;20621;-88
2024/03/04 07:17:34;;;;;;;20.40;15.83;;;;;;;7.18;77.38;96356.22;4998217;28;20235;-89
2024/03/04 07:20:02;;;;;;;32.30;23.47;;;;;;;7.46;77.51;96365.38;5011808;28;20203;-88
2024/03/04 07:22:29;;;;;;;34.97;24.37;;;;;;;7.52;77.57;96364.28;5012971;28;20729;-87
2024/03/04 07:24:56;;;;;;;58.90;34.77;;;;;;;7.71;77.16;96361.03;5012970;28;20207;-86
2024/03/04 07:27:23;;;;;;;74.27;46.90;;;;;;;7.74;76.76;96357.81;5000550;28;20238;-89
2024/03/04 07:29:50;;;;;;;46.57;32.57;;;;;;;7.91;76.77;96358.28;4993596;28;20633;-90
2024/03/04 07:32:19;;;;;;;43.47;30.37;;;;;;;8.00;76.66;96358.47;4991963;28;20231;-86
2024/03/04 07:34:45;;;;;;;138.47;80.10;;;;;;;7.96;75.67;96354.78;5000366;28;20264;-87
2024/03/04 07:37:12;;;;;;;211.60;104.57;;;;;;;7.90;75.82;96356.69;5014323;28;20206;-86
2024/03/04 07:39:39;;;;;;;54.07;32.73;;;;;;;7.98;75.90;96366.72;5032268;28;20665;-87
2024/03/04 07:42:07;;;;;;;19.63;14.97;;;;;;;7.59;75.71;96348.91;5014469;28;20207;-87
2024/03/04 07:44:39;;;;;;;17.57;13.50;;;;;;;7.06;77.01;96300.16;5032506;28;20645;-87
2024/03/04 07:47:06;;;;;;;17.47;15.30;;;;;;;7.73;76.06;96369.50;5027332;28;20231;-88
2024/03/04 07:49:34;;;;;;;22.20;15.73;;;;;;;7.39;77.14;96367.50;4994856;28;20210;-87
2024/03/04 07:52:01;;;;;;;20.67;15.77;;;;;;;7.38;77.31;96373.09;5012359;28;20690;-86
2024/03/04 07:54:28;;;;;;;24.37;18.07;;;;;;;7.69;76.01;96369.25;5012461;28;20601;-87
2024/03/04 07:56:55;;;;;;;32.43;16.17;;;;;;;7.53;75.63;96326.16;4995929;28;20211;-87
2024/03/04 07:59:22;;;;;;;19.90;15.43;;;;;;;7.79;75.54;96366.56;5012738;28;20204;-85
2024/03/04 08:01:49;;;;;;;25.03;16.30;;;;;;;7.55;75.39;96302.03;5024894;28;20249;-90
2024/03/04 08:04:17;;;;;;;24.03;16.37;;;;;;;7.66;75.43;96343.28;5032715;28;20234;-89
2024/03/04 08:06:46;;;;;;;20.60;16.33;;;;;;;7.76;76.05;96375.03;5015160;28;20198;-89
2024/03/04 08:09:14;;;;;;;18.97;15.17;;;;;;;8.07;75.40;96367.72;5033263;28;20213;-88
2024/03/04 08:11:43;;;;;;;19.17;13.87;;;;;;;8.27;75.38;96382.69;5031960;28;20290;-85
2024/03/04 08:14:10;;;;;;;16.97;14.67;;;;;;;8.24;75.38;96377.91;5014464;28;20218;-83
2024/03/04 08:16:40;;;;;;;25.70;20.47;;;;;;;8.39;75.13;96377.06;5033830;28;20198;-96
2024/03/04 08:19:11;;;;;;;26.97;18.33;;;;;;;8.40;75.32;96383.16;5041114;28;20201;-94
2024/03/04 08:21:43;;;;;;;39.27;26.60;;;;;;;8.24;75.23;96363.88;5032732;28;20277;-86
2024/03/04 08:24:12;;;;;;;30.40;21.33;;;;;;;7.72;75.66;96286.59;5014436;28;20204;-85
2024/03/04 08:26:38;;;;;;;25.83;19.13;;;;;;;8.28;76.01;96378.97;5013055;28;20239;-83
2024/03/04 08:29:06;;;;;;;24.47;17.20;;;;;;;7.93;75.63;96315.59;4994672;28;20211;-85
2024/03/04 08:31:36;;;;;;;38.83;25.20;;;;;;;8.34;75.43;96377.06;5011254;28;20203;-90
2024/03/04 08:34:04;;;;;;;28.07;20.50;;;;;;;8.20;75.60;96354.91;4995771;28;20688;-85
2024/03/04 08:36:31;;;;;;;37.23;26.40;;;;;;;8.18;75.75;96371.09;5011984;28;20286;-87
2024/03/04 08:38:58;;;;;;;22.33;16.90;;;;;;;8.38;75.40;96372.84;4994642;28;20242;-88
2024/03/04 08:41:27;;;;;;;28.03;21.73;;;;;;;7.93;75.31;96318.22;4995161;28;20565;-92
2024/03/04 08:43:54;;;;;;;21.03;15.47;;;;;;;8.43;75.00;96382.59;5012091;28;20254;-88
2024/03/04 08:46:22;;;;;;;21.77;17.30;;;;;;;8.11;75.33;96338.00;5012424;28;20211;-88
2024/03/04 08:48:48;;;;;;;23.87;18.27;;;;;;;8.51;75.36;96385.44;5012094;28;20238;-89
2024/03/04 08:51:20;;;;;;;30.00;19.80;;;;;;;8.26;75.51;96343.97;5011922;28;20212;-89
2024/03/04 08:53:49;;;;;;;25.57;19.83;;;;;;;8.46;74.85;96347.56;5010942;28;20219;-90
2024/03/04 08:56:16;;;;;;;38.77;30.03;;;;;;;8.50;74.56;96340.66;5012517;28;20626;-88
2024/03/04 08:58:45;;;;;;;26.97;22.50;;;;;;;8.85;74.30;96378.53;5011564;28;20261;-86
2024/03/04 09:01:12;;;;;;;24.27;19.50;;;;;;;8.82;74.15;96383.34;4994405;28;20674;-83
2024/03/04 09:03:40;;;;;;;24.07;16.87;;;;;;;8.89;73.81;96382.22;4994150;28;20626;-85
2024/03/04 09:06:15;;;;;;;25.90;18.50;;;;;;;8.94;73.53;96377.66;5011343;28;20207;-86
2024/03/04 09:08:42;;;;;;;22.33;16.40;;;;;;;8.74;72.36;96357.41;4994404;28;20202;-84
2024/03/04 09:11:10;;;;;;;19.10;14.83;;;;;;;8.91;72.95;96396.81;4993715;28;20621;-87
2024/03/04 09:13:37;;;;;;;20.23;15.50;;;;;;;8.84;72.53;96377.75;5011965;28;20657;-86
2024/03/04 09:16:08;;;;;;;22.87;20.47;;;;;;;9.00;72.78;96387.16;5010201;28;20196;-85
2024/03/04 09:18:35;;;;;;;19.93;17.17;;;;;;;8.93;72.59;96380.59;4978117;28;20259;-86
2024/03/04 09:21:02;;;;;;;21.13;15.73;;;;;;;8.69;72.03;96316.88;5009792;28;20203;-86
2024/03/04 09:23:29;;;;;;;19.40;13.63;;;;;;;9.21;71.35;96382.41;5011567;28;20601;-84
2024/03/04 09:25:58;;;;;;;19.57;16.37;;;;;;;9.31;71.07;96371.69;5011102;28;20227;-84
2024/03/04 09:28:25;;;;;;;19.30;14.30;;;;;;;9.32;70.14;96375.13;5011474;28;20200;-84
2024/03/04 09:30:52;;;;;;;20.17;15.43;;;;;;;9.59;69.15;96376.44;4980350;28;20687;-85
2024/03/04 09:33:20;;;;;;;19.83;16.37;;;;;;;9.81;67.85;96374.03;4996928;28;20227;-85
2024/03/04 09:35:47;;;;;;;17.90;13.10;;;;;;;9.51;66.87;96346.75;5014440;28;20587;-85
2024/03/04 09:38:15;;;;;;;17.23;13.40;;;;;;;9.71;67.00;96360.88;4995966;28;20694;-85
2024/03/04 09:40:45;;;;;;;16.47;13.50;;;;;;;9.56;66.84;96351.22;5014630;28;20203;-86
2024/03/04 09:43:13;;;;;;;21.77;13.73;;;;;;;9.62;65.95;96336.00;5014775;28;20265;-84
2024/03/04 09:45:41;;;;;;;15.67;12.00;;;;;;;9.50;65.46;96326.59;5015405;28;20235;-87
2024/03/04 09:48:11;;;;;;;15.93;13.30;;;;;;;9.75;65.95;96324.66;5015325;28;20199;-86
2024/03/04 09:50:39;;;;;;;16.10;11.50;;;;;;;9.80;64.50;96356.50;5003248;28;20211;-87
2024/03/04 09:53:07;;;;;;;15.77;12.67;;;;;;;9.57;64.87;96317.50;5004209;28;20234;-88
2024/03/04 09:55:34;;;;;;;17.63;13.00;;;;;;;9.30;65.86;96276.38;5021872;28;20211;-86
2024/03/04 09:58:04;;;;;;;17.20;13.60;;;;;;;9.74;65.79;96317.78;5020813;28;20200;-87
2024/03/04 10:00:37;;;;;;;18.43;14.07;;;;;;;10.03;64.49;96277.75;5018677;28;20589;-86
2024/03/04 10:03:07;;;;;;;17.10;13.30;;;;;;;10.23;63.87;96312.00;5017055;28;20199;-84
2024/03/04 10:05:38;;;;;;;15.80;12.97;;;;;;;9.69;63.52;96270.03;5015917;28;20198;-88
2024/03/04 10:08:09;;;;;;;22.07;14.27;;;;;;;10.14;64.18;96329.69;4999152;28;20728;-86
2024/03/04 10:10:36;;;;;;;20.20;14.33;;;;;;;10.29;63.75;96307.41;5014349;28;20199;-86
2024/03/04 10:13:09;;;;;;;18.60;13.67;;;;;;;10.48;63.51;96334.78;5014357;28;20288;-85
2024/03/04 10:15:36;;;;;;;14.97;11.93;;;;;;;10.52;61.89;96343.75;4994635;28;20205;-86
2024/03/04 10:18:10;;;;;;;17.20;13.17;;;;;;;10.51;62.25;96328.09;5008507;28;20207;-85
2024/03/04 10:20:40;;;;;;;13.20;11.83;;;;;;;10.19;63.26;96304.91;5024480;28;20235;-87
2024/03/04 10:23:08;;;;;;;18.17;12.93;;;;;;;10.40;62.99;96310.69;5016247;28;20204;-86
2024/03/04 10:25:37;;;;;;;72.37;34.33;;;;;;;10.33;62.80;96311.06;5015682;28;20230;-87
2024/03/04 10:28:05;;;;;;;81.07;39.23;;;;;;;10.14;62.04;96233.94;4996493;28;20607;-87
2024/03/04 10:30:33;;;;;;;27.90;16.63;;;;;;;10.56;61.58;96301.38;5013283;28;20195;-87
2024/03/04 10:33:02;;;;;;;16.73;12.60;;;;;;;11.23;59.87;96288.44;5012735;28;20219;-85
2024/03/04 10:35:30;;;;;;;30.80;15.87;;;;;;;11.50;59.15;96284.16;5013800;28;20290;-86
2024/03/04 10:38:01;;;;;;;20.57;13.20;;;;;;;12.13;58.35;96287.84;4995851;28;20208;-86
2024/03/04 10:40:30;;;;;;;20.03;12.03;;;;;;;12.72;56.08;96286.66;5009984;28;20200;-86
2024/03/04 10:42:59;;;;;;;16.87;13.83;;;;;;;13.18;55.96;96284.63;4999174;28;20230;-87
2024/03/04 10:45:30;;;;;;;17.70;14.60;;;;;;;12.64;55.00;96250.00;5013266;28;20249;-89
2024/03/04 10:47:59;;;;;;;24.13;16.73;;;;;;;12.58;56.24;96261.91;5013279;28;20211;-87
2024/03/04 10:50:26;;;;;;;29.23;19.83;;;;;;;12.29;58.59;96264.25;5013844;28;20766;-89
2024/03/04 10:52:54;;;;;;;19.13;14.13;;;;;;;12.04;58.94;96284.31;5012824;28;20234;-87
2024/03/04 10:55:21;;;;;;;19.47;12.90;;;;;;;12.18;58.25;96266.38;5013380;28;20208;-87
2024/03/04 10:57:56;;;;;;;18.33;14.77;;;;;;;12.46;57.08;96269.69;5014310;28;20294;-85
2024/03/04 11:00:27;;;;;;;18.23;13.37;;;;;;;12.01;58.87;96287.63;5013877;28;20661;-87
2024/03/04 11:03:12;;;;;;;23.30;15.57;;;;;;;11.90;59.10;96276.38;4996474;28;20221;-87
2024/03/04 11:05:42;;;;;;;19.57;15.17;;;;;;;11.68;59.45;96282.44;4996162;28;20598;-85
2024/03/04 11:08:15;;;;;;;18.50;14.40;;;;;;;11.44;61.18;96282.69;5017547;28;20210;-89
2024/03/04 11:10:45;;;;;;;21.47;15.77;;;;;;;11.46;60.93;96275.16;4996004;28;20297;-88
2024/03/04 11:13:22;;;;;;;18.83;14.70;;;;;;;11.55;60.18;96269.94;5022310;28;20752;-88
2024/03/04 11:15:55;;;;;;;19.70;13.80;;;;;;;11.37;60.39;96277.75;5028021;28;20210;-91
2024/03/04 11:18:32;;;;;;;20.70;14.90;;;;;;;11.26;60.67;96269.16;5013232;28;20207;-87
2024/03/04 11:21:00;;;;;;;16.73;13.13;;;;;;;11.45;60.25;96265.59;5013630;28;20655;-88
2024/03/04 11:23:28;;;;;;;18.47;14.40;;;;;;;11.22;61.02;96270.84;5013839;28;20207;-89
2024/03/04 11:25:56;;;;;;;16.60;13.13;;;;;;;11.67;60.04;96256.88;4995576;28;20226;-87
2024/03/04 11:28:25;;;;;;;18.47;13.77;;;;;;;11.60;59.91;96256.50;5013304;28;20187;-85